Time;durP1;ratioP1;P1;durP2;ratioP2;P2;SDS_P1;SDS_P2;PMS_P1;PMS_P2;Temp;Humidity;BMP_temperature;BMP_pressure;BME280_temperature;BME280_humidity;BME280_pressure;Samples;Min_cycle;Max_cycle;Signal;HPM_P1;HPM_P2
2022/07/06 00:01:28;;;;;;;;;3.25;3.25;;;;;18.98;46.08;102335.47;6207800;22;45312;-76
2022/07/06 00:04:02;;;;;;;;;4.33;3.67;;;;;18.96;46.44;102342.59;6189908;22;45169;-76
2022/07/06 00:06:30;;;;;;;;;5.00;4.00;;;;;18.97;46.19;102348.81;6217702;22;45390;-76
2022/07/06 00:08:55;;;;;;;;;3.75;2.50;;;;;18.90;46.28;102335.56;6220680;22;45794;-76
2022/07/06 00:11:23;;;;;;;;;5.33;4.33;;;;;18.89;46.82;102335.56;6220014;22;46698;-76
2022/07/06 00:13:52;;;;;;;;;4.00;3.00;;;;;18.88;46.88;102340.03;6247564;22;45415;-76
2022/07/06 00:16:47;;;;;;;;;;;;;;;;;;;;;
2022/07/06 00:19:15;;;;;;;;;4.00;4.00;;;;;18.85;46.58;102336.53;6247017;22;73155;-76
2022/07/06 00:21:43;;;;;;;;;3.50;3.50;;;;;18.87;46.76;102334.69;6220063;22;46880;-76
2022/07/06 00:24:16;;;;;;;;;3.50;3.50;;;;;18.82;47.27;102331.19;6220371;22;45429;-76
2022/07/06 00:26:41;;;;;;;;;4.00;3.00;;;;;18.85;47.41;102341.88;6248113;22;45202;-75
2022/07/06 00:29:09;;;;;;;;;4.75;4.00;;;;;18.77;47.30;102323.28;6220550;22;45423;-75
2022/07/06 00:31:35;;;;;;;;;2.00;2.00;;;;;18.78;47.14;102333.03;6220285;22;46332;-76
2022/07/06 00:34:00;;;;;;;;;2.00;2.00;;;;;18.75;47.16;102334.88;6249502;22;45249;-76
2022/07/06 00:36:28;;;;;;;;;4.67;3.00;;;;;18.69;47.44;102334.00;6222028;22;45391;-76
2022/07/06 00:39:01;;;;;;;;;2.50;2.50;;;;;18.71;47.53;102333.97;6248476;22;45467;-76
2022/07/06 00:41:29;;;;;;;;;3.25;3.00;;;;;18.64;47.74;102333.19;6247670;22;46470;-76
2022/07/06 00:43:59;;;;;;;;;3.00;2.00;;;;;18.66;47.89;102335.84;6220157;22;45176;-76
2022/07/06 00:46:30;;;;;;;;;3.00;3.00;;;;;18.62;47.69;102328.75;6248313;22;45330;-75
2022/07/06 00:49:04;;;;;;;;;5.00;5.00;;;;;18.62;47.72;102329.63;6220320;22;45491;-76
2022/07/06 00:51:37;;;;;;;;;3.00;3.00;;;;;18.57;48.49;102327.94;6219814;22;47699;-76
2022/07/06 00:54:07;;;;;;;;;3.75;3.75;;;;;18.55;48.28;102327.06;6247590;22;45408;-76
2022/07/06 00:56:35;;;;;;;;;3.00;3.00;;;;;18.54;48.37;102328.84;6220282;22;45192;-76
2022/07/06 00:59:18;;;;;;;;;3.50;3.50;;;;;18.56;48.52;102336.84;6220333;22;45343;-76
2022/07/06 01:01:45;;;;;;;;;5.00;4.00;;;;;18.55;48.15;102337.72;6193527;22;47050;-76
2022/07/06 01:04:23;;;;;;;;;3.75;3.75;;;;;18.47;48.42;102336.03;6214242;22;45411;-76
2022/07/06 01:06:54;;;;;;;;;3.00;3.00;;;;;18.47;48.44;102337.81;6217105;22;45413;-76
2022/07/06 01:09:19;;;;;;;;;2.50;2.50;;;;;18.39;48.76;102334.34;6189616;22;45501;-75
2022/07/06 01:11:45;;;;;;;;;2.75;2.75;;;;;18.42;48.75;102340.53;6216995;22;45407;-76
2022/07/06 01:14:17;;;;;;;;;3.25;3.25;;;;;18.42;48.99;102348.53;6217575;22;45265;-75
2022/07/06 01:16:46;;;;;;;;;3.25;2.50;;;;;18.34;49.13;102338.88;6190128;22;45308;-75
2022/07/06 01:19:11;;;;;;;;;4.00;4.00;;;;;18.34;49.10;102342.41;6190070;22;45331;-76
2022/07/06 01:21:42;;;;;;;;;5.50;4.25;;;;;18.35;49.23;102348.63;6217024;22;45356;-76
2022/07/06 01:24:08;;;;;;;;;4.75;4.75;;;;;18.32;49.19;102341.53;6218458;22;45181;-75
2022/07/06 01:26:34;;;;;;;;;3.50;3.50;;;;;18.25;49.43;102335.34;6219087;22;45185;-76
2022/07/06 01:28:59;;;;;;;;;5.00;5.00;;;;;18.27;49.09;102338.91;6220467;22;45371;-75
2022/07/06 01:31:30;;;;;;;;;4.75;4.75;;;;;18.21;49.30;102340.75;6191988;22;46935;-76
2022/07/06 01:34:08;;;;;;;;;;;;;;;;;;;;;
2022/07/06 01:36:41;;;;;;;;;4.00;4.00;;;;;18.16;49.64;102340.78;6217259;22;68778;-75
2022/07/06 01:39:17;;;;;;;;;4.75;3.75;;;;;18.08;50.01;102332.00;6190125;22;45203;-74
2022/07/06 01:41:50;;;;;;;;;3.25;3.00;;;;;18.12;49.85;102339.03;6216626;22;46436;-76
2022/07/06 01:44:21;;;;;;;;;3.25;3.25;;;;;18.10;50.32;102345.31;6216930;22;45213;-76
2022/07/06 01:46:48;;;;;;;;;4.00;4.00;;;;;18.02;50.08;102332.94;6214884;22;45393;-75
2022/07/06 01:49:16;;;;;;;;;4.00;4.00;;;;;18.02;50.24;102343.59;6217454;22;45302;-75
2022/07/06 01:51:52;;;;;;;;;;;;;;;;;;;;;
2022/07/06 01:54:25;;;;;;;;;6.00;4.75;;;;;17.84;50.22;102322.44;6215747;22;72890;-76
2022/07/06 01:56:55;;;;;;;;;4.00;4.00;;;;;17.85;50.89;102326.84;6189338;22;45202;-76
2022/07/06 01:59:23;;;;;;;;;3.75;3.75;;;;;17.94;50.64;102344.56;6189088;22;45301;-75
2022/07/06 02:01:48;;;;;;;;;5.00;5.00;;;;;17.90;50.73;102343.69;6216122;22;45483;-76
2022/07/06 02:04:16;;;;;;;;;4.75;4.00;;;;;17.87;50.60;102337.50;6189431;22;45241;-76
2022/07/06 02:06:42;;;;;;;;;4.50;4.50;;;;;17.88;51.13;102344.59;6214936;22;45265;-76
2022/07/06 02:09:07;;;;;;;;;4.00;4.00;;;;;17.82;51.16;102333.09;6216787;22;45182;-76
2022/07/06 02:11:32;;;;;;;;;4.50;3.75;;;;;17.83;50.95;102336.66;6189128;22;46873;-75
2022/07/06 02:14:00;;;;;;;;;6.00;6.00;;;;;17.78;51.29;102336.66;6217029;22;45210;-76
2022/07/06 02:16:28;;;;;;;;;5.00;5.00;;;;;17.75;51.27;102331.38;6216849;22;45355;-76
2022/07/06 02:18:55;;;;;;;;;4.00;4.00;;;;;17.66;51.67;102323.44;6216695;22;45452;-76
2022/07/06 02:21:21;;;;;;;;;4.00;4.00;;;;;17.70;51.32;102321.66;6216225;22;45480;-76
2022/07/06 02:23:46;;;;;;;;;6.00;6.00;;;;;17.67;51.66;102319.88;6216952;22;45276;-76
2022/07/06 02:26:12;;;;;;;;;4.25;4.00;;;;;17.71;51.59;102315.41;6217151;22;45488;-75
2022/07/06 02:28:37;;;;;;;;;4.00;4.00;;;;;17.67;51.94;102317.22;6189582;22;45254;-76
2022/07/06 02:31:02;;;;;;;;;4.25;4.00;;;;;17.63;51.99;102311.03;6217769;22;45324;-76
2022/07/06 02:33:28;;;;;;;;;4.75;4.75;;;;;17.60;51.70;102304.84;6217909;22;45115;-76
2022/07/06 02:35:53;;;;;;;;;6.50;5.25;;;;;17.56;51.82;102297.75;6217955;22;45158;-77
2022/07/06 02:38:21;;;;;;;;;6.75;5.75;;;;;17.57;51.56;102304.88;6217982;22;45459;-76
2022/07/06 02:40:49;;;;;;;;;5.00;5.00;;;;;17.54;52.09;102302.25;6217721;22;45400;-76
2022/07/06 02:43:14;;;;;;;;;7.25;5.75;;;;;17.58;52.15;102318.16;6217249;22;45354;-76
2022/07/06 02:45:40;;;;;;;;;6.75;6.75;;;;;17.56;52.48;102327.06;6218186;22;45077;-76
2022/07/06 02:48:05;;;;;;;;;6.00;6.00;;;;;17.44;52.59;102311.19;6218154;22;45168;-76
2022/07/06 02:50:31;;;;;;;;;5.75;5.75;;;;;17.43;52.29;102315.63;6217990;22;46441;-75
2022/07/06 02:52:58;;;;;;;;;5.00;5.00;;;;;17.29;52.59;102299.72;6218152;22;45113;-76
2022/07/06 02:55:24;;;;;;;;;5.75;5.50;;;;;17.43;52.66;102331.59;6217813;22;45181;-76
2022/07/06 02:57:49;;;;;;;;;9.25;7.75;;;;;17.38;53.10;102326.31;6217732;22;45522;-76
2022/07/06 03:00:17;;;;;;;;;7.00;6.25;;;;;17.42;53.01;102343.13;6189688;22;47543;-76
2022/07/06 03:02:45;;;;;;;;;7.25;6.00;;;;;17.32;53.00;102331.69;6190485;22;45393;-76
2022/07/06 03:05:10;;;;;;;;;6.00;6.00;;;;;17.29;53.25;102326.34;6217980;22;45208;-77
2022/07/06 03:07:36;;;;;;;;;6.00;5.75;;;;;17.24;53.20;102322.84;6190623;22;45595;-76
2022/07/06 03:10:04;;;;;;;;;7.25;6.50;;;;;17.26;53.32;102333.47;6217559;22;46397;-76
2022/07/06 03:12:29;;;;;;;;;9.25;7.00;;;;;17.14;53.60;102321.13;6217119;22;45352;-76
2022/07/06 03:14:55;;;;;;;;;8.50;8.25;;;;;17.20;53.54;102334.41;6217814;22;45273;-76
2022/07/06 03:17:21;;;;;;;;;9.00;7.75;;;;;17.20;53.74;102329.94;6218052;22;45438;-76
2022/07/06 03:19:47;;;;;;;;;10.25;8.25;;;;;17.15;53.83;102325.56;6218117;22;45306;-76
2022/07/06 03:22:12;;;;;;;;;9.00;8.00;;;;;17.22;53.81;102348.59;6190165;22;45966;-76
2022/07/06 03:24:37;;;;;;;;;8.25;7.00;;;;;17.20;53.55;102345.03;6218232;22;45169;-76
2022/07/06 03:27:03;;;;;;;;;8.50;7.50;;;;;17.09;53.89;102334.47;6190452;22;45287;-76
2022/07/06 03:29:31;;;;;;;;;8.50;6.50;;;;;17.08;53.61;102337.09;6217663;22;46095;-76
2022/07/06 03:31:57;;;;;;;;;9.00;8.00;;;;;16.99;54.22;102330.06;6190230;22;45199;-76
2022/07/06 03:34:25;;;;;;;;;7.75;7.00;;;;;17.09;54.45;102355.75;6217898;22;45186;-76
2022/07/06 03:36:50;;;;;;;;;7.75;6.50;;;;;17.06;54.15;102353.09;6190201;22;45441;-76
2022/07/06 03:39:16;;;;;;;;;7.25;7.25;;;;;16.93;54.24;102336.31;6217549;22;45514;-75
2022/07/06 03:41:41;;;;;;;;;6.75;6.50;;;;;16.95;54.06;102345.16;6217073;22;45368;-76
2022/07/06 03:44:11;;;;;;;;;9.00;8.00;;;;;16.97;54.32;102346.06;6218083;22;45286;-76
2022/07/06 03:46:36;;;;;;;;;7.25;7.25;;;;;16.93;54.38;102344.28;6217816;22;45186;-76
2022/07/06 03:49:13;;;;;;;;;7.25;7.00;;;;;16.97;54.59;102362.03;6217458;22;45179;-76
2022/07/06 03:51:54;;;;;;;;;6.25;6.25;;;;;16.94;54.94;102364.66;6190418;22;45596;-76
2022/07/06 03:54:19;;;;;;;;;7.00;7.00;;;;;16.73;54.73;102325.72;6190365;22;45444;-76
2022/07/06 03:57:18;;;;;;;;;5.50;5.50;;;;;16.67;54.94;102323.06;6190060;22;45416;-76
2022/07/06 03:59:55;;;;;;;;;;;;;;;;;;;;;
2022/07/06 04:02:44;;;;;;;;;7.00;7.00;;;;;16.71;55.40;102345.25;6216163;22;72043;-76
2022/07/06 04:05:25;;;;;;;;;;;;;;;;;;;;;
2022/07/06 04:08:13;;;;;;;;;7.75;6.75;;;;;16.69;55.47;102345.22;6215892;22;72639;-76
2022/07/06 04:10:54;;;;;;;;;;;;;;;;;;;;;
2022/07/06 04:14:01;;;;;;;;;;;;;;;;;;;;;
2022/07/06 04:24:02;;;;;;;;;;;;;;;;;;;;;
2022/07/06 04:27:28;;;;;;;;;;;;;;;;;;;;;
2022/07/06 04:30:24;;;;;;;;;;;;;;;;;;;;;
2022/07/06 04:32:55;;;;;;;;;6.50;6.50;;;;;16.64;56.08;102360.31;6216094;22;72575;-76
2022/07/06 04:35:30;;;;;;;;;8.50;6.75;;;;;16.61;55.94;102341.72;6189550;22;47444;-75
2022/07/06 04:38:05;;;;;;;;;7.50;6.75;;;;;16.53;56.15;102335.53;6189864;22;45256;-75
2022/07/06 04:40:51;;;;;;;;;7.75;7.75;;;;;16.51;56.08;102338.19;6217237;22;45190;-76
2022/07/06 04:43:46;;;;;;;;;;;;;;;;;;;;;
2022/07/06 04:46:39;;;;;;;;;;;;;;;;;;;;;
2022/07/06 04:49:37;;;;;;;;;;;;;;;;;;;;;
2022/07/06 04:52:28;;;;;;;;;7.75;7.75;;;;;16.54;56.73;102361.22;6214548;22;68403;-75
2022/07/06 04:55:12;;;;;;;;;;;;;;;;;;;;;
2022/07/06 04:57:57;;;;;;;;;;;;;;;;;;;;;
2022/07/06 05:00:54;;;;;;;;;8.00;8.00;;;;;16.68;57.15;102380.72;6215108;22;71622;-77
2022/07/06 05:03:46;;;;;;;;;8.50;7.75;;;;;16.68;56.99;102379.78;6217403;22;45301;-76
2022/07/06 05:06:44;;;;;;;;;;;;;;;;;;;;;
2022/07/06 05:09:12;;;;;;;;;7.25;6.75;;;;;16.58;56.95;102365.66;6212493;22;75084;-77
2022/07/06 05:15:07;;;;;;;;;;;;;;;;;;;;;
2022/07/06 05:18:03;;;;;;;;;7.25;7.25;;;;;16.66;57.27;102376.28;6215743;22;71391;-76
2022/07/06 05:20:47;;;;;;;;;;;;;;;;;;;;;
2022/07/06 05:23:35;;;;;;;;;;;;;;;;;;;;;
2022/07/06 05:26:38;;;;;;;;;7.00;7.00;;;;;16.58;57.16;102354.16;5127875;27;45194;-76
2022/07/06 05:29:21;;;;;;;;;;;;;;;;;;;;;
2022/07/06 05:32:01;;;;;;;;;;;;;;;;;;;;;
2022/07/06 05:34:46;;;;;;;;;;;;;;;;;;;;;
2022/07/06 05:37:21;;;;;;;;;11.00;10.00;;;;;16.80;57.16;102368.28;5096814;27;74253;-77
2022/07/06 05:43:10;;;;;;;;;;;;;;;;;;;;;
2022/07/06 05:46:17;;;;;;;;;10.75;10.00;;;;;16.98;57.50;102394.81;5095713;27;71703;-77
2022/07/06 05:51:50;;;;;;;;;11.25;9.75;;;;;16.96;57.06;102373.53;5096656;27;45458;-77
2022/07/06 05:54:48;;;;;;;;;;;;;;;;;;;;;
2022/07/06 06:00:31;;;;;;;;;8.75;7.75;;;;;16.97;57.08;102369.09;5096794;27;46556;-77
2022/07/06 06:03:23;;;;;;;;;;;;;;;;;;;;;
2022/07/06 06:09:15;;;;;;;;;;;;;;;;;;;;;
2022/07/06 06:12:39;;;;;;;;;;;;;;;;;;;;;
2022/07/06 06:15:58;;;;;;;;;;;;;;;;;;;;;
2022/07/06 06:18:50;;;;;;;;;;;;;;;;;;;;;
2022/07/06 06:21:26;;;;;;;;;;;;;;;;;;;;;
2022/07/06 06:24:29;;;;;;;;;;;;;;;;;;;;;
2022/07/06 06:27:17;;;;;;;;;10.50;9.50;;;;;17.41;56.47;102399.94;5095523;27;72827;-76
2022/07/06 06:30:03;;;;;;;;;9.25;9.00;;;;;17.44;56.81;102388.41;5094848;27;45262;-76
2022/07/06 06:32:59;;;;;;;;;;;;;;;;;;;;;
2022/07/06 06:35:29;;;;;;;;;9.25;8.75;;;;;17.58;56.39;102391.84;5108717;27;75039;-76
2022/07/06 06:38:35;;;;;;;;;;;;;;;;;;;;;
2022/07/06 06:41:04;;;;;;;;;9.25;9.25;;;;;17.74;55.98;102397.97;5081719;27;68752;-76
2022/07/06 06:43:29;;;;;;;;;8.25;8.25;;;;;17.77;56.26;102397.94;5080586;28;45557;-76
2022/07/06 06:46:04;;;;;;;;;9.50;8.50;;;;;17.78;55.66;102387.28;5095645;27;46352;-76
2022/07/06 06:48:37;;;;;;;;;9.00;9.00;;;;;17.90;55.24;102401.44;5097229;27;45250;-76
2022/07/06 06:51:08;;;;;;;;;8.50;8.50;;;;;17.93;55.15;102399.63;5102971;27;45325;-76
2022/07/06 06:53:46;;;;;;;;;;;;;;;;;;;;;
2022/07/06 06:56:14;;;;;;;;;9.50;8.25;;;;;18.02;54.84;102401.34;5081108;27;74106;-77
2022/07/06 06:58:42;;;;;;;;;7.25;7.25;;;;;18.10;54.47;102403.97;5082339;27;45299;-77
2022/07/06 07:01:18;;;;;;;;;8.00;7.00;;;;;18.14;54.47;102408.34;5082952;28;45307;-79
2022/07/06 07:03:46;;;;;;;;;7.00;7.00;;;;;18.16;54.06;102404.78;5071241;27;45278;-80
2022/07/06 07:06:14;;;;;;;;;8.50;8.25;;;;;18.22;54.20;102407.38;5092135;27;46259;-80
2022/07/06 07:11:25;;;;;;;;;6.00;5.50;;;;;18.38;52.83;102418.78;5086749;27;45177;-79
2022/07/06 07:13:56;;;;;;;;;7.50;7.50;;;;;18.47;52.52;102415.16;5093682;27;45425;-82
2022/07/06 07:16:24;;;;;;;;;7.00;7.00;;;;;18.52;52.46;102413.31;5084353;27;45290;-80
2022/07/06 07:18:51;;;;;;;;;6.50;6.50;;;;;18.57;52.33;102395.50;5092323;27;45236;-80
2022/07/06 07:21:17;;;;;;;;;9.50;7.25;;;;;18.66;52.20;102402.53;5098198;27;45385;-80
2022/07/06 07:23:42;;;;;;;;;6.75;5.75;;;;;18.80;51.71;102407.75;5073431;28;45350;-80
2022/07/06 07:26:12;;;;;;;;;5.25;5.25;;;;;18.92;51.03;102421.84;5066222;27;47394;-79
2022/07/06 07:28:43;;;;;;;;;5.00;5.00;;;;;19.03;50.68;102424.38;5083539;27;45246;-79
2022/07/06 07:31:08;;;;;;;;;6.00;5.00;;;;;19.17;50.36;102418.88;5080258;28;45327;-79
2022/07/06 07:33:36;;;;;;;;;6.00;5.50;;;;;19.30;49.89;102406.22;5071853;28;45410;-80
2022/07/06 07:36:09;;;;;;;;;6.50;6.50;;;;;19.41;49.53;102398.97;5081783;27;47412;-79
2022/07/06 07:38:39;;;;;;;;;6.50;5.75;;;;;19.47;49.25;102398.88;5088926;27;45444;-80
2022/07/06 07:41:13;;;;;;;;;5.00;5.00;;;;;19.51;48.50;102392.59;5069900;27;45333;-80
2022/07/06 07:43:46;;;;;;;;;4.75;4.75;;;;;19.56;48.26;102395.19;5083296;27;45875;-79
2022/07/06 07:46:17;;;;;;;;;5.25;4.00;;;;;19.62;47.95;102395.09;5074132;27;47242;-83
2022/07/06 07:48:45;;;;;;;;;6.00;6.00;;;;;19.71;48.11;102396.78;5079480;28;45439;-79
2022/07/06 07:51:18;;;;;;;;;6.00;5.50;;;;;19.78;47.52;102387.75;5080135;28;45324;-78
2022/07/06 07:53:46;;;;;;;;;4.00;4.00;;;;;19.88;47.51;102404.53;5095137;27;45431;-78
2022/07/06 07:56:32;;;;;;;;;4.50;4.50;;;;;19.98;47.46;102399.00;5071922;28;46133;-81
2022/07/06 07:59:14;;;;;;;;;3.33;3.33;;;;;20.06;47.23;102401.56;5081551;28;45287;-81
2022/07/06 08:04:54;;;;;;;;;;;;;;;;;;;;;
2022/07/06 08:07:37;;;;;;;;;5.00;4.00;;;;;20.44;46.56;102387.50;5091502;27;76276;-81
2022/07/06 08:10:27;;;;;;;;;;;;;;;;;;;;;
2022/07/06 08:13:22;;;;;;;;;;;;;;;;;;;;;
2022/07/06 08:19:15;;;;;;;;;;;;;;;;;;;;;
2022/07/06 08:22:37;;;;;;;;;;;;;;;;;;;;;
2022/07/06 08:35:42;;;;;;;;;;;;;;;;;;;;;
2022/07/06 08:38:21;;;;;;;;;;;;;;;;;;;;;
2022/07/06 08:44:44;;;;;;;;;6.25;5.50;;;;;21.75;43.42;102384.78;5004499;27;45272;-84
2022/07/06 08:47:26;;;;;;;;;;;;;;;;;;;;;
2022/07/06 08:50:20;;;;;;;;;5.00;5.00;;;;;21.94;43.40;102386.09;5100659;27;68672;-84
2022/07/06 08:52:49;;;;;;;;;4.25;4.25;;;;;22.05;43.10;102382.25;5091197;27;45275;-81
2022/07/06 08:55:16;;;;;;;;;5.33;5.33;;;;;22.16;42.79;102374.81;5079759;27;45678;-91
2022/07/06 08:57:47;;;;;;;;;4.00;3.00;;;;;22.27;42.98;102377.28;5078579;27;44887;-77
2022/07/06 09:00:14;;;;;;;;;5.00;5.00;;;;;22.41;42.46;102373.28;5097954;27;45432;-78
2022/07/06 09:02:40;;;;;;;;;4.00;4.00;;;;;22.51;42.58;102365.88;5082786;27;45843;-79
2022/07/06 09:05:08;;;;;;;;;6.67;6.33;;;;;22.61;42.01;102374.53;5090946;27;45507;-79
2022/07/06 09:07:34;;;;;;;;;4.67;4.33;;;;;22.64;42.05;102369.06;5101151;27;45897;-80
2022/07/06 09:09:59;;;;;;;;;6.67;5.00;;;;;22.67;42.18;102369.88;5109865;27;45278;-78
2022/07/06 09:12:29;;;;;;;;;6.00;6.00;;;;;22.73;41.53;102365.28;5102590;27;45446;-78
2022/07/06 09:14:56;;;;;;;;;3.33;3.00;;;;;22.79;41.43;102376.69;5079761;27;47460;-77
2022/07/06 09:17:25;;;;;;;;;4.75;4.75;;;;;22.86;41.43;102372.94;5100545;27;45562;-78
2022/07/06 09:19:51;;;;;;;;;6.00;6.00;;;;;22.92;41.39;102369.19;5108106;27;45569;-77
2022/07/06 09:22:27;;;;;;;;;5.67;4.33;;;;;22.99;41.18;102369.91;5103318;27;45669;-78
2022/07/06 09:24:53;;;;;;;;;5.00;4.00;;;;;23.03;41.17;102364.38;5088274;27;45465;-78
2022/07/06 09:27:19;;;;;;;;;4.00;4.00;;;;;23.03;41.01;102369.75;5108312;27;45829;-78
2022/07/06 09:29:45;;;;;;;;;5.33;5.33;;;;;23.05;40.98;102357.19;5095921;27;45844;-78
2022/07/06 09:32:11;;;;;;;;;4.67;4.67;;;;;23.06;40.91;102361.59;5100392;27;45294;-78
2022/07/06 09:35:02;;;;;;;;;;;;;;;;;;;;;
2022/07/06 09:37:29;;;;;;;;;3.33;3.33;;;;;23.11;40.85;102356.97;5107242;27;72788;-77
2022/07/06 09:39:54;;;;;;;;;4.33;4.00;;;;;23.16;40.83;102361.34;5103529;27;45411;-78
2022/07/06 09:43:10;;;;;;;;;;;;;;;;;;;;;
2022/07/06 09:49:52;;;;;;;;;;;;;;;;;;;;;
2022/07/06 09:53:16;;;;;;;;;;;;;;;;;;;;;
2022/07/06 09:56:25;;;;;;;;;;;;;;;;;;;;;
2022/07/06 10:02:14;;;;;;;;;;;;;;;;;;;;;
2022/07/06 10:11:50;;;;;;;;;;;;;;;;;;;;;
2022/07/06 10:15:17;;;;;;;;;;;;;;;;;;;;;
2022/07/06 10:18:57;;;;;;;;;;;;;;;;;;;;;
2022/07/06 10:25:20;;;;;;;;;;;;;;;;;;;;;
2022/07/06 10:28:42;;;;;;;;;;;;;;;;;;;;;
2022/07/06 10:38:49;;;;;;;;;;;;;;;;;;;;;
2022/07/06 10:41:19;;;;;;;;;6.00;6.00;;;;;24.78;38.30;102342.41;4955995;28;71695;-84
2022/07/06 10:43:48;;;;;;;;;4.00;4.00;;;;;25.07;38.05;102345.78;5015941;28;44705;-84
2022/07/06 10:46:20;;;;;;;;;6.00;6.00;;;;;25.37;37.40;102343.75;5079647;27;45370;-84
2022/07/06 10:48:52;;;;;;;;;6.67;5.67;;;;;25.54;37.17;102345.75;5090098;27;45468;-85
2022/07/06 10:51:28;;;;;;;;;6.67;6.67;;;;;25.65;36.74;102340.78;5089743;27;45273;-86
2022/07/06 10:54:04;;;;;;;;;6.33;6.00;;;;;25.62;37.23;102335.50;5086486;27;45259;-84
2022/07/06 11:00:16;;;;;;;;;;;;;;;;;;;;;
2022/07/06 11:02:41;;;;;;;;;6.25;6.25;;;;;25.46;36.69;102353.28;5078358;27;72148;-83
2022/07/06 11:05:42;;;;;;;;;8.50;8.00;;;;;25.37;36.71;102342.84;5088201;27;45319;-83
2022/07/06 11:08:24;;;;;;;;;;;;;;;;;;;;;
2022/07/06 11:11:22;;;;;;;;;;;;;;;;;;;;;
2022/07/06 11:13:58;;;;;;;;;10.00;9.75;;;;;25.64;36.50;102330.94;5076192;27;72741;-87
2022/07/06 11:19:25;;;;;;;;;8.33;7.00;;;;;26.02;35.79;102324.88;5058222;27;45277;-86
2022/07/06 11:23:08;;;;;;;;;;;;;;;;;;;;;
2022/07/06 11:26:24;;;;;;;;;;;;;;;;;;;;;
2022/07/06 11:29:21;;;;;;;;;;;;;;;;;;;;;
2022/07/06 11:32:08;;;;;;;;;;;;;;;;;;;;;
2022/07/06 11:34:39;;;;;;;;;5.00;5.00;;;;;26.60;33.86;102300.72;5051683;28;74335;-84
2022/07/06 11:37:09;;;;;;;;;5.00;4.00;;;;;26.63;32.69;102303.25;5055076;28;45737;-83
2022/07/06 11:39:39;;;;;;;;;8.00;5.67;;;;;26.64;33.35;102302.31;5050211;28;45251;-83
2022/07/06 11:42:05;;;;;;;;;5.33;5.33;;;;;26.83;33.29;102310.41;5056123;28;45440;-88
2022/07/06 11:44:30;;;;;;;;;4.67;4.00;;;;;26.86;33.04;102310.28;5059400;28;47346;-86
2022/07/06 11:46:59;;;;;;;;;6.00;4.67;;;;;26.95;33.38;102307.16;5075435;28;45477;-87
2022/07/06 11:49:24;;;;;;;;;6.00;6.00;;;;;27.02;32.95;102289.69;5057420;28;45359;-87
2022/07/06 11:51:50;;;;;;;;;5.67;5.67;;;;;27.11;32.99;102293.78;5058594;28;45483;-90
2022/07/06 11:54:17;;;;;;;;;5.00;5.00;;;;;27.17;32.59;102281.81;5059636;28;46887;-89
2022/07/06 11:56:54;;;;;;;;;4.00;4.00;;;;;27.24;32.43;102285.97;5075923;28;46125;-89
2022/07/06 11:59:32;;;;;;;;;4.00;4.00;;;;;27.37;32.29;102279.00;5059986;28;45469;-90
2022/07/06 12:02:02;;;;;;;;;6.00;4.00;;;;;27.57;31.88;102277.97;5054345;28;45508;-92
2022/07/06 12:04:32;;;;;;;;;4.00;4.00;;;;;27.66;31.76;102282.91;5056753;28;48251;-90
2022/07/06 12:07:07;;;;;;;;;5.67;5.00;;;;;27.80;31.89;102292.16;5057364;28;45271;-89
2022/07/06 12:09:34;;;;;;;;;4.00;4.00;;;;;27.91;31.77;102285.28;5057786;28;45527;-88
2022/07/06 12:12:13;;;;;;;;;;;;;;;;;;;;;
2022/07/06 12:14:40;;;;;;;;;4.33;4.33;;;;;28.17;31.28;102271.31;5052639;28;74292;-89
2022/07/06 12:17:08;;;;;;;;;4.33;4.33;;;;;28.20;30.89;102272.03;5043101;28;45916;-89
2022/07/06 12:19:35;;;;;;;;;3.00;3.00;;;;;28.21;30.85;102273.78;5054164;28;45522;-89
2022/07/06 12:22:01;;;;;;;;;4.33;4.33;;;;;28.16;30.76;102273.13;5052927;28;45571;-89
2022/07/06 12:24:31;;;;;;;;;4.33;4.33;;;;;28.26;30.57;102278.94;5080715;27;47328;-89
2022/07/06 12:26:57;;;;;;;;;4.33;4.33;;;;;28.39;30.87;102271.91;5082224;27;45255;-90
2022/07/06 12:29:23;;;;;;;;;5.00;4.00;;;;;28.52;30.62;102267.59;5077984;27;45292;-90
2022/07/06 12:31:52;;;;;;;;;4.67;3.67;;;;;28.54;30.06;102268.38;5093834;27;45512;-90
2022/07/06 12:34:20;;;;;;;;;5.67;4.67;;;;;28.56;30.16;102266.47;5090329;27;47511;-88
2022/07/06 12:36:50;;;;;;;;;5.00;5.00;;;;;28.70;29.72;102264.81;5087197;27;45479;-88
2022/07/06 12:39:18;;;;;;;;;3.33;3.00;;;;;28.90;29.47;102270.00;5083391;27;45545;-88
2022/07/06 12:41:50;;;;;;;;;3.00;3.00;;;;;29.06;28.83;102261.00;5077108;27;45528;-87
2022/07/06 12:44:21;;;;;;;;;3.00;3.00;;;;;28.98;28.62;102256.88;5064760;28;47642;-89
2022/07/06 12:46:48;;;;;;;;;4.00;3.00;;;;;28.78;28.92;102265.25;5077819;27;45618;-83
2022/07/06 12:49:22;;;;;;;;;4.67;3.33;;;;;28.57;28.68;102257.38;5099669;27;45586;-83
2022/07/06 12:51:57;;;;;;;;;0.67;0.67;;;;;28.52;29.50;102256.75;5067942;27;45686;-82
2022/07/06 12:54:25;;;;;;;;;4.00;4.00;;;;;28.67;29.09;102259.56;5086396;27;47345;-83
2022/07/06 12:57:13;;;;;;;;;1.33;1.33;;;;;28.77;28.57;102247.25;5102120;27;44776;-82
2022/07/06 13:00:00;;;;;;;;;3.67;3.67;;;;;28.88;28.84;102255.66;5086843;27;45441;-84
2022/07/06 13:02:29;;;;;;;;;2.33;2.00;;;;;28.96;28.73;102237.09;5082377;27;45532;-84
2022/07/06 13:05:00;;;;;;;;;3.00;3.00;;;;;28.90;28.02;102242.00;5074616;27;46038;-85
2022/07/06 13:07:27;;;;;;;;;4.33;2.33;;;;;28.83;28.63;102235.19;5084744;27;46065;-85
2022/07/06 13:09:53;;;;;;;;;2.00;2.00;;;;;28.86;28.34;102229.56;5070015;28;45467;-84
2022/07/06 13:12:19;;;;;;;;;3.67;3.33;;;;;29.02;28.53;102246.72;5085886;27;45435;-87
2022/07/06 13:14:45;;;;;;;;;4.00;3.00;;;;;29.15;28.02;102234.22;5075118;27;47238;-88
2022/07/06 13:17:11;;;;;;;;;3.33;2.33;;;;;29.19;28.29;102224.94;5102996;27;45435;-87
2022/07/06 13:19:37;;;;;;;;;3.00;3.00;;;;;29.32;28.56;102227.78;5085552;27;45548;-88
2022/07/06 13:22:05;;;;;;;;;6.00;4.67;;;;;29.34;28.83;102222.28;5081599;28;45495;-88
2022/07/06 13:24:33;;;;;;;;;2.00;2.00;;;;;29.23;27.86;102214.78;5082042;27;48091;-88
2022/07/06 13:26:59;;;;;;;;;4.33;3.00;;;;;29.11;28.38;102221.81;5070585;27;45619;-87
2022/07/06 13:29:29;;;;;;;;;2.00;2.00;;;;;29.09;27.81;102220.16;5072312;28;44734;-87
2022/07/06 13:31:59;;;;;;;;;2.00;2.00;;;;;29.07;27.90;102216.66;5085353;27;45812;-88
2022/07/06 13:34:27;;;;;;;;;2.00;2.00;;;;;29.16;27.79;102208.88;5065322;28;45783;-88
2022/07/06 13:36:52;;;;;;;;;1.00;1.00;;;;;29.21;27.93;102205.84;5099268;27;45352;-88
2022/07/06 13:39:18;;;;;;;;;1.00;1.00;;;;;29.31;28.17;102201.63;5075701;27;45426;-89
2022/07/06 13:41:44;;;;;;;;;1.00;1.00;;;;;29.39;27.27;102193.91;5085793;27;45896;-88
2022/07/06 13:44:11;;;;;;;;;0.67;0.67;;;;;29.54;27.48;102181.25;5084085;27;46241;-90
2022/07/06 13:46:38;;;;;;;;;0.67;0.67;;;;;29.64;27.51;102181.59;5091121;27;44802;-88
2022/07/06 13:49:04;;;;;;;;;0.00;0.00;;;;;29.62;27.59;102181.66;5090929;27;45263;-88
2022/07/06 13:51:32;;;;;;;;;1.00;1.00;;;;;29.66;27.16;102179.66;5101089;27;45323;-85
2022/07/06 13:54:00;;;;;;;;;0.00;0.00;;;;;29.65;27.18;102175.22;5089529;27;47384;-84
2022/07/06 13:56:27;;;;;;;;;1.00;1.00;;;;;29.56;27.09;102160.31;5088648;27;45330;-85
2022/07/06 13:58:52;;;;;;;;;1.00;0.33;;;;;29.58;27.11;102165.66;5083109;27;45634;-87
2022/07/06 14:01:20;;;;;;;;;0.00;0.00;;;;;29.60;27.18;102164.59;5088769;27;45504;-86
2022/07/06 14:03:46;;;;;;;;;1.00;1.00;;;;;29.62;26.50;102168.09;5076923;27;48855;-88
2022/07/06 14:06:12;;;;;;;;;0.67;0.67;;;;;29.66;26.50;102166.09;5092278;27;45363;-87
2022/07/06 14:08:39;;;;;;;;;1.00;1.00;;;;;29.70;27.04;102162.22;5087772;27;45511;-90
2022/07/06 14:11:06;;;;;;;;;1.00;1.00;;;;;29.78;26.51;102145.44;5094284;27;45598;-86
2022/07/06 14:13:33;;;;;;;;;0.33;0.33;;;;;29.81;26.33;102159.72;5081381;28;48182;-89
2022/07/06 14:15:59;;;;;;;;;2.00;2.00;;;;;29.88;26.52;102149.31;5085326;27;45232;-87
2022/07/06 14:18:24;;;;;;;;;1.00;1.00;;;;;29.90;26.57;102147.38;5085404;27;45566;-87
2022/07/06 14:20:51;;;;;;;;;0.00;0.00;;;;;29.95;26.21;102136.25;5078166;27;45522;-88
2022/07/06 14:23:16;;;;;;;;;0.00;0.00;;;;;30.01;26.59;102142.16;5065936;27;47445;-89
2022/07/06 14:25:43;;;;;;;;;0.00;0.00;;;;;30.10;26.33;102138.84;5083806;27;45819;-86
2022/07/06 14:28:10;;;;;;;;;0.00;0.00;;;;;30.18;26.32;102142.91;5090422;27;45317;-86
2022/07/06 14:30:39;;;;;;;;;0.00;0.00;;;;;30.13;25.67;102131.50;5073558;27;45425;-88
2022/07/06 14:33:08;;;;;;;;;1.00;0.00;;;;;30.19;26.24;102125.66;5082200;27;48127;-85
2022/07/06 14:35:39;;;;;;;;;1.00;1.00;;;;;30.30;26.23;102142.16;5101546;27;45778;-85
2022/07/06 14:38:08;;;;;;;;;0.67;0.67;;;;;30.37;25.77;102148.94;5075045;28;45449;-86
2022/07/06 14:40:35;;;;;;;;;0.00;0.00;;;;;30.41;26.14;102153.19;5090992;27;45962;-86